Time;durP1;ratioP1;P1;durP2;ratioP2;P2;SDS_P1;SDS_P2;PMS_P1;PMS_P2;Temp;Humidity;BMP_temperature;BMP_pressure;BME280_temperature;BME280_humidity;BME280_pressure;Samples;Min_cycle;Max_cycle;Signal;HPM_P1;HPM_P2
2022/11/21 00:00:41;;;;;;;1.00;0.90;;;;;;;6.12;100.00;99557.66;4984937;28;20195;-73
2022/11/21 00:03:09;;;;;;;2.60;1.07;;;;;;;6.08;100.00;99555.94;4987588;28;20196;-75
2022/11/21 00:05:38;;;;;;;2.00;0.97;;;;;;;6.05;100.00;99553.41;4981113;28;20483;-74
2022/11/21 00:08:04;;;;;;;1.33;0.90;;;;;;;6.04;100.00;99537.13;4990469;28;20603;-74
2022/11/21 00:10:29;;;;;;;1.37;1.10;;;;;;;6.08;100.00;99538.84;4986238;28;20898;-74
2022/11/21 00:12:56;;;;;;;1.17;0.90;;;;;;;6.11;100.00;99530.25;4987358;28;20188;-73
2022/11/21 00:15:23;;;;;;;1.93;1.00;;;;;;;6.11;100.00;99525.13;4981568;28;20205;-75
2022/11/21 00:17:49;;;;;;;1.57;1.00;;;;;;;6.12;100.00;99516.56;4987044;28;20218;-74
2022/11/21 00:20:16;;;;;;;2.00;1.20;;;;;;;6.13;100.00;99509.69;4987114;28;20204;-74
2022/11/21 00:22:41;;;;;;;2.03;1.20;;;;;;;6.13;100.00;99505.41;4987127;28;20194;-75
2022/11/21 00:25:07;;;;;;;1.83;1.10;;;;;;;6.17;100.00;99503.69;4986890;28;20199;-73
2022/11/21 00:27:32;;;;;;;1.97;1.40;;;;;;;6.16;100.00;99489.13;4985867;28;20205;-73
2022/11/21 00:29:58;;;;;;;2.80;1.30;;;;;;;6.19;100.00;99495.13;4985015;28;20191;-73
2022/11/21 00:32:23;;;;;;;2.10;1.30;;;;;;;6.20;100.00;99493.41;4992329;28;20199;-74
2022/11/21 00:34:48;;;;;;;2.10;1.40;;;;;;;6.19;100.00;99486.56;4981644;28;20200;-73
2022/11/21 00:37:14;;;;;;;2.20;1.20;;;;;;;6.23;100.00;99501.09;4984747;28;20232;-73
2022/11/21 00:39:39;;;;;;;5.10;1.67;;;;;;;6.23;100.00;99512.22;4992615;28;20237;-74
2022/11/21 00:42:04;;;;;;;2.53;1.30;;;;;;;6.26;100.00;99495.97;4984490;28;20284;-73
2022/11/21 00:44:30;;;;;;;3.23;1.30;;;;;;;6.26;100.00;99503.69;4986203;28;20223;-72
2022/11/21 00:46:55;;;;;;;2.63;1.30;;;;;;;6.28;100.00;99516.50;4989098;28;20186;-74
2022/11/21 00:49:20;;;;;;;2.67;1.40;;;;;;;6.25;100.00;99509.66;4984290;28;20326;-73
2022/11/21 00:51:46;;;;;;;1.97;1.07;;;;;;;6.24;100.00;99507.97;4985575;28;20195;-74
2022/11/21 00:54:11;;;;;;;2.20;1.37;;;;;;;6.20;100.00;99509.66;4985708;28;20198;-73
2022/11/21 00:56:36;;;;;;;3.10;1.33;;;;;;;6.18;100.00;99505.41;4996990;28;20214;-73
2022/11/21 00:59:02;;;;;;;3.13;1.43;;;;;;;6.14;100.00;99496.84;4986204;28;20205;-74
2022/11/21 01:01:27;;;;;;;3.40;1.27;;;;;;;6.13;100.00;99501.97;4985798;28;20715;-72
2022/11/21 01:03:52;;;;;;;3.90;1.37;;;;;;;6.13;100.00;99501.97;4987179;28;20272;-73
2022/11/21 01:06:18;;;;;;;4.07;1.40;;;;;;;6.10;100.00;99488.31;4984550;28;20199;-73
2022/11/21 01:08:44;;;;;;;2.47;1.30;;;;;;;6.08;100.00;99487.47;4986081;28;20219;-73
2022/11/21 01:11:13;;;;;;;2.73;0.90;;;;;;;6.05;100.00;99484.91;4987284;28;20609;-73
2022/11/21 01:13:38;;;;;;;2.27;1.33;;;;;;;6.05;100.00;99482.31;4991335;28;20197;-74
2022/11/21 01:16:13;;;;;;;2.27;1.23;;;;;;;6.04;100.00;99485.75;4981801;28;20241;-74
2022/11/21 01:18:39;;;;;;;1.60;1.20;;;;;;;6.03;100.00;99486.63;4982435;28;20215;-74
2022/11/21 01:21:32;;;;;;;3.40;1.57;;;;;;;6.07;100.00;99484.88;4999636;28;20273;-72
2022/11/21 01:23:59;;;;;;;3.50;1.20;;;;;;;6.07;100.00;99482.31;4985597;28;20226;-74
2022/11/21 01:26:27;;;;;;;2.80;1.30;;;;;;;6.09;100.00;99484.03;4983473;28;20189;-75
2022/11/21 01:28:52;;;;;;;2.33;1.40;;;;;;;6.12;100.00;99483.16;4990301;28;20206;-73
2022/11/21 01:31:22;;;;;;;3.77;1.70;;;;;;;6.15;100.00;99487.41;4985837;28;20650;-73
2022/11/21 01:33:48;;;;;;;3.63;1.50;;;;;;;6.13;100.00;99481.44;4983811;28;20214;-75
2022/11/21 01:36:18;;;;;;;2.20;1.23;;;;;;;6.14;100.00;99489.16;4988543;28;20868;-74
2022/11/21 01:38:48;;;;;;;1.50;1.20;;;;;;;6.17;100.00;99488.28;4984288;28;20232;-75
2022/11/21 01:41:17;;;;;;;2.43;1.40;;;;;;;6.16;100.00;99490.00;4989166;28;20200;-73
2022/11/21 01:43:42;;;;;;;3.07;1.50;;;;;;;6.17;100.00;99484.00;4988368;28;20187;-74
2022/11/21 01:46:07;;;;;;;2.93;1.40;;;;;;;6.17;100.00;99493.41;4985938;28;20198;-75
2022/11/21 01:48:55;;;;;;;2.27;1.57;;;;;;;6.17;100.00;99481.44;4990665;28;20275;-74
2022/11/21 01:51:39;;;;;;;2.33;1.20;;;;;;;6.14;100.00;99481.44;4990494;28;20211;-74
2022/11/21 01:54:15;;;;;;;2.33;1.37;;;;;;;6.12;100.00;99472.03;4987142;28;20207;-73
2022/11/21 01:56:48;;;;;;;4.13;0.97;;;;;;;6.08;100.00;99471.19;4990735;28;20235;-74
2022/11/21 01:59:21;;;;;;;2.17;0.93;;;;;;;6.01;100.00;99472.91;4992411;28;20242;-74
2022/11/21 02:01:52;;;;;;;2.87;1.20;;;;;;;6.01;100.00;99477.22;4988826;28;20200;-74
2022/11/21 02:04:18;;;;;;;3.13;1.10;;;;;;;6.00;100.00;99468.63;4984334;28;20665;-72
2022/11/21 02:06:44;;;;;;;1.70;0.83;;;;;;;5.96;100.00;99464.38;4984158;28;20274;-75
2022/11/21 02:09:09;;;;;;;2.40;1.10;;;;;;;5.95;100.00;99467.78;4988641;28;22232;-74
2022/11/21 02:11:47;;;;;;;1.17;1.03;;;;;;;5.91;100.00;99468.66;4993479;28;20194;-74
2022/11/21 02:14:12;;;;;;;2.07;1.30;;;;;;;5.88;100.00;99472.09;4984925;28;20182;-74
2022/11/21 02:16:38;;;;;;;4.23;1.27;;;;;;;5.87;100.00;99469.50;4986889;28;20205;-72
2022/11/21 02:19:05;;;;;;;2.30;1.13;;;;;;;5.84;100.00;99478.09;4987486;28;20296;-73
2022/11/21 02:21:52;;;;;;;1.43;1.10;;;;;;;5.87;100.00;99477.22;4987374;28;20197;-74
2022/11/21 02:24:32;;;;;;;1.87;1.10;;;;;;;5.88;100.00;99468.66;4990626;28;20193;-75
2022/11/21 02:26:58;;;;;;;2.03;1.10;;;;;;;5.87;100.00;99465.25;4988100;28;20788;-75
2022/11/21 02:29:24;;;;;;;1.90;1.17;;;;;;;5.88;100.00;99466.06;4990147;28;20208;-75
2022/11/21 02:31:51;;;;;;;1.37;1.00;;;;;;;5.88;100.00;99451.53;4984848;28;20212;-74
2022/11/21 02:34:16;;;;;;;1.87;1.00;;;;;;;5.89;100.00;99450.69;4982395;28;20196;-75
2022/11/21 02:36:44;;;;;;;1.27;0.90;;;;;;;5.86;100.00;99448.13;4985413;28;20827;-74
2022/11/21 02:39:18;;;;;;;1.70;1.10;;;;;;;5.82;100.00;99459.25;4988372;28;20210;-74
2022/11/21 02:42:01;;;;;;;4.20;1.23;;;;;;;5.84;100.00;99465.25;4989707;28;20200;-73
2022/11/21 02:44:36;;;;;;;1.27;0.60;;;;;;;5.83;100.00;99462.66;4992276;28;20187;-73
2022/11/21 02:47:01;;;;;;;3.47;1.10;;;;;;;5.84;100.00;99467.81;4988323;28;20207;-73
2022/11/21 02:49:36;;;;;;;3.00;1.33;;;;;;;5.88;100.00;99466.94;4988694;28;20309;-74
2022/11/21 02:52:02;;;;;;;1.30;0.90;;;;;;;5.89;100.00;99471.22;4993988;28;20614;-73
2022/11/21 02:54:27;;;;;;;1.60;0.80;;;;;;;5.91;100.00;99458.38;4986840;28;20291;-74
2022/11/21 02:56:52;;;;;;;1.17;1.00;;;;;;;5.94;100.00;99461.78;4987284;28;20698;-73
2022/11/21 02:59:18;;;;;;;2.70;0.80;;;;;;;5.98;100.00;99462.63;4987321;28;20205;-74
2022/11/21 03:01:43;;;;;;;2.77;1.10;;;;;;;6.01;100.00;99461.81;4987771;28;20206;-74
2022/11/21 03:04:08;;;;;;;2.17;1.20;;;;;;;6.03;100.00;99455.78;4986250;28;20320;-73
2022/11/21 03:06:34;;;;;;;2.20;1.17;;;;;;;6.05;100.00;99455.81;4987988;28;20193;-74
2022/11/21 03:08:59;;;;;;;1.43;0.80;;;;;;;6.07;100.00;99460.06;4986426;28;20214;-73
2022/11/21 03:11:24;;;;;;;1.87;1.00;;;;;;;6.11;100.00;99450.63;4987043;28;20646;-74
2022/11/21 03:13:50;;;;;;;3.03;1.20;;;;;;;6.14;100.00;99440.34;4985167;28;20241;-74
2022/11/21 03:16:15;;;;;;;2.83;1.23;;;;;;;6.17;100.00;99436.88;4987077;28;20774;-73
2022/11/21 03:18:40;;;;;;;2.93;1.50;;;;;;;6.21;100.00;99434.28;4987842;28;20222;-74
2022/11/21 03:21:05;;;;;;;3.80;1.50;;;;;;;6.24;100.00;99430.88;4988810;28;20202;-73
2022/11/21 03:23:31;;;;;;;2.57;1.30;;;;;;;6.25;100.00;99432.59;4993933;28;20394;-73
2022/11/21 03:25:58;;;;;;;2.53;1.37;;;;;;;6.27;100.00;99424.84;4996329;28;20179;-74
2022/11/21 03:28:23;;;;;;;2.93;1.33;;;;;;;6.25;100.00;99435.16;4988522;28;20310;-74
2022/11/21 03:30:48;;;;;;;2.50;1.20;;;;;;;6.24;100.00;99430.88;4988060;28;20318;-75
2022/11/21 03:33:14;;;;;;;2.53;1.30;;;;;;;6.26;100.00;99442.00;4983189;28;20541;-72
2022/11/21 03:35:39;;;;;;;2.93;1.20;;;;;;;6.25;100.00;99438.56;4984158;28;20183;-74
2022/11/21 03:38:04;;;;;;;2.87;1.17;;;;;;;6.30;100.00;99435.97;4981329;28;20207;-73
2022/11/21 03:40:29;;;;;;;3.40;1.20;;;;;;;6.30;100.00;99443.66;4978533;28;20227;-72
2022/11/21 03:42:55;;;;;;;2.17;1.00;;;;;;;6.29;100.00;99438.56;4979444;28;20198;-74
2022/11/21 03:45:20;;;;;;;4.13;1.37;;;;;;;6.30;100.00;99442.84;4985570;28;20651;-73
2022/11/21 03:47:45;;;;;;;2.67;1.10;;;;;;;6.27;100.00;99436.00;4984354;28;20203;-73
2022/11/21 03:50:13;;;;;;;3.00;1.33;;;;;;;6.27;100.00;99441.16;4985069;28;20628;-74
2022/11/21 03:52:39;;;;;;;1.73;1.10;;;;;;;6.24;100.00;99436.00;4986048;28;20195;-72
2022/11/21 03:55:04;;;;;;;3.80;1.23;;;;;;;6.23;100.00;99442.00;4988790;28;20195;-73
2022/11/21 03:57:30;;;;;;;4.37;1.37;;;;;;;6.25;100.00;99445.44;4988245;28;20216;-73
2022/11/21 03:59:55;;;;;;;4.10;1.13;;;;;;;6.23;100.00;99436.88;4987711;28;20187;-73
2022/11/21 04:02:20;;;;;;;2.53;0.90;;;;;;;6.22;100.00;99438.56;4988556;28;20680;-74
2022/11/21 04:04:46;;;;;;;3.70;1.47;;;;;;;6.25;100.00;99438.56;4990554;28;20307;-73
2022/11/21 04:07:11;;;;;;;3.63;1.53;;;;;;;6.27;100.00;99438.56;4988423;28;20554;-74
2022/11/21 04:09:36;;;;;;;3.43;1.57;;;;;;;6.28;100.00;99447.13;4993754;28;20224;-74
2022/11/21 04:12:02;;;;;;;2.30;1.37;;;;;;;6.25;100.00;99453.97;4983900;28;20183;-73
2022/11/21 04:14:27;;;;;;;1.80;0.97;;;;;;;6.24;100.00;99442.00;4988386;28;20204;-73
2022/11/21 04:16:53;;;;;;;2.53;1.20;;;;;;;6.24;100.00;99446.28;4984617;28;20217;-74
2022/11/21 04:19:18;;;;;;;2.10;1.03;;;;;;;6.21;100.00;99443.72;4995924;28;20210;-74
2022/11/21 04:21:43;;;;;;;2.47;1.37;;;;;;;6.13;100.00;99448.91;4987798;28;20188;-74
2022/11/21 04:24:08;;;;;;;2.57;1.30;;;;;;;6.10;100.00;99457.50;4982975;28;20622;-74
2022/11/21 04:26:34;;;;;;;1.73;0.90;;;;;;;6.08;100.00;99454.06;4985535;28;20187;-73
2022/11/21 04:28:59;;;;;;;2.70;1.10;;;;;;;6.09;100.00;99454.91;4985517;28;20543;-74
2022/11/21 04:31:24;;;;;;;1.90;1.10;;;;;;;6.06;100.00;99452.34;4985695;28;20204;-72
2022/11/21 04:33:49;;;;;;;1.50;1.00;;;;;;;6.06;100.00;99455.78;4985984;28;20192;-74
2022/11/21 04:36:15;;;;;;;2.10;1.00;;;;;;;6.06;100.00;99454.91;4990055;28;20552;-73
2022/11/21 04:38:40;;;;;;;1.87;0.90;;;;;;;6.02;100.00;99459.22;4981796;28;20316;-74
2022/11/21 04:41:05;;;;;;;1.60;1.10;;;;;;;6.00;100.00;99449.81;4982593;28;20662;-75
2022/11/21 04:43:31;;;;;;;2.33;1.10;;;;;;;5.98;100.00;99460.03;4981074;28;20273;-73
2022/11/21 04:45:56;;;;;;;1.83;1.00;;;;;;;5.98;100.00;99460.03;4979658;28;20188;-76
2022/11/21 04:48:21;;;;;;;1.87;0.90;;;;;;;5.99;100.00;99458.34;4981400;28;20206;-73
2022/11/21 04:50:47;;;;;;;1.90;1.03;;;;;;;6.02;100.00;99446.38;4983230;28;20273;-72
2022/11/21 04:53:12;;;;;;;2.00;1.10;;;;;;;6.05;100.00;99451.50;4983034;28;20648;-74
2022/11/21 04:55:37;;;;;;;2.07;1.23;;;;;;;6.07;100.00;99443.78;4986878;28;20191;-73
2022/11/21 04:58:03;;;;;;;3.03;1.00;;;;;;;6.06;100.00;99447.22;4982872;28;20216;-73
2022/11/21 05:00:28;;;;;;;3.13;1.07;;;;;;;6.02;100.00;99454.06;4974429;28;20211;-77
2022/11/21 05:02:53;;;;;;;2.37;1.10;;;;;;;6.02;100.00;99460.94;4982077;28;20757;-73
2022/11/21 05:05:19;;;;;;;1.43;0.90;;;;;;;6.04;100.00;99446.38;4979611;28;20187;-75
2022/11/21 05:07:44;;;;;;;3.00;1.20;;;;;;;6.07;100.00;99444.66;4990768;28;20243;-75
2022/11/21 05:10:11;;;;;;;1.90;1.03;;;;;;;6.09;100.00;99448.06;4984519;28;20297;-74
2022/11/21 05:15:20;;;;;;;1.43;0.80;;;;;;;6.14;100.00;99447.19;4980372;28;20198;-72
2022/11/21 05:17:45;;;;;;;0.80;0.70;;;;;;;6.15;100.00;99449.75;4988068;28;20216;-76
2022/11/21 05:20:11;;;;;;;2.00;1.10;;;;;;;6.16;100.00;99446.31;4986914;28;20229;-72
2022/11/21 05:22:36;;;;;;;1.90;1.10;;;;;;;6.17;100.00;99442.91;4986930;28;20194;-74
2022/11/21 05:25:03;;;;;;;1.67;1.10;;;;;;;6.16;100.00;99436.06;4988284;28;20201;-72
2022/11/21 05:27:28;;;;;;;3.63;1.33;;;;;;;6.18;100.00;99443.75;4985186;28;20268;-72
2022/11/21 05:29:54;;;;;;;3.23;1.50;;;;;;;6.16;100.00;99441.19;4989399;28;20901;-74
2022/11/21 05:32:19;;;;;;;2.77;1.13;;;;;;;6.14;100.00;99450.63;4993088;28;20193;-74
2022/11/21 05:34:45;;;;;;;2.30;1.03;;;;;;;6.13;100.00;99441.19;4987522;28;20907;-74
2022/11/21 05:37:10;;;;;;;2.50;1.00;;;;;;;6.15;100.00;99447.19;4989487;28;20221;-74
2022/11/21 05:39:35;;;;;;;3.00;1.20;;;;;;;6.13;100.00;99454.03;4987208;28;20691;-73
2022/11/21 05:42:01;;;;;;;3.13;1.50;;;;;;;6.09;100.00;99453.22;4985332;28;20195;-73
2022/11/21 05:44:26;;;;;;;2.80;1.40;;;;;;;6.03;100.00;99448.09;4985526;28;20201;-73
2022/11/21 05:46:51;;;;;;;5.07;1.77;;;;;;;6.00;100.00;99449.81;4985142;28;20183;-72
2022/11/21 05:49:17;;;;;;;3.20;1.60;;;;;;;5.94;100.00;99453.22;4987185;28;20225;-74
2022/11/21 05:51:42;;;;;;;5.37;2.07;;;;;;;5.93;100.00;99448.94;4985069;28;20654;-74
2022/11/21 05:54:11;;;;;;;3.20;2.00;;;;;;;5.93;100.00;99444.66;4984683;28;20785;-74
2022/11/21 05:56:37;;;;;;;2.87;1.80;;;;;;;5.94;100.00;99440.41;4989796;28;20215;-74
2022/11/21 05:59:02;;;;;;;3.30;1.90;;;;;;;5.93;100.00;99447.22;4984263;28;20838;-71
2022/11/21 06:04:11;;;;;;;4.90;1.97;;;;;;;5.76;100.00;99438.72;4985226;28;20221;-72
2022/11/21 06:06:37;;;;;;;2.80;1.73;;;;;;;5.63;100.00;99437.91;4983986;28;20204;-70
2022/11/21 06:09:03;;;;;;;3.77;1.83;;;;;;;5.52;100.00;99431.97;4986509;28;20212;-71
2022/11/21 06:11:28;;;;;;;4.30;2.10;;;;;;;5.41;100.00;99435.38;4984934;28;20220;-72
2022/11/21 06:13:54;;;;;;;6.70;2.40;;;;;;;5.33;100.00;99443.09;4980169;28;20242;-71
2022/11/21 06:16:20;;;;;;;6.60;2.33;;;;;;;5.26;100.00;99437.97;4986831;28;20699;-72
2022/11/21 06:18:51;;;;;;;4.30;2.10;;;;;;;5.18;100.00;99443.97;4990167;28;20745;-72
2022/11/21 06:21:20;;;;;;;4.33;2.10;;;;;;;5.13;100.00;99449.97;4972800;28;20191;-71
2022/11/21 06:23:48;;;;;;;5.20;2.00;;;;;;;5.10;100.00;99444.81;4989681;28;20254;-71
2022/11/21 06:26:16;;;;;;;3.67;2.10;;;;;;;5.13;100.00;99453.38;4993356;28;20229;-71
2022/11/21 06:28:42;;;;;;;5.37;2.43;;;;;;;5.21;100.00;99439.69;4995751;28;20214;-72
2022/11/21 06:31:10;;;;;;;4.97;2.33;;;;;;;5.30;100.00;99455.06;4993746;28;21017;-71
2022/11/21 06:33:36;;;;;;;7.50;2.60;;;;;;;5.32;100.00;99443.94;4986339;28;20318;-73
2022/11/21 06:36:20;;;;;;;5.53;2.53;;;;;;;5.31;100.00;99439.66;4987302;28;20231;-72
2022/11/21 06:38:46;;;;;;;3.77;1.93;;;;;;;5.34;100.00;99439.66;4986052;28;20717;-73
2022/11/21 06:41:22;;;;;;;7.77;2.67;;;;;;;5.43;100.00;99448.22;4988604;28;20224;-72
2022/11/21 06:43:47;;;;;;;3.33;1.80;;;;;;;5.44;100.00;99449.94;4986951;28;20190;-72
2022/11/21 06:46:14;;;;;;;4.80;2.10;;;;;;;5.39;100.00;99455.06;4982263;28;20272;-72
2022/11/21 06:48:40;;;;;;;3.20;1.90;;;;;;;5.36;100.00;99455.09;4983363;28;20214;-71
2022/11/21 06:51:17;;;;;;;4.23;2.30;;;;;;;5.34;100.00;99451.66;4985015;28;20261;-71
2022/11/21 06:53:43;;;;;;;3.97;2.00;;;;;;;5.33;100.00;99447.38;4980047;28;20192;-72
2022/11/21 06:56:08;;;;;;;5.93;2.43;;;;;;;5.34;100.00;99455.06;4981601;28;20213;-71
2022/11/21 06:58:34;;;;;;;4.67;2.40;;;;;;;5.33;100.00;99455.06;4983894;28;20307;-71
2022/11/21 07:01:07;;;;;;;4.23;2.20;;;;;;;5.34;100.00;99451.66;4987388;28;20685;-72
2022/11/21 07:03:33;;;;;;;6.80;2.03;;;;;;;5.34;100.00;99446.53;4983135;28;20225;-69
2022/11/21 07:06:03;;;;;;;4.57;2.40;;;;;;;5.32;100.00;99456.78;4983941;28;20184;-71
2022/11/21 07:08:29;;;;;;;2.90;2.00;;;;;;;5.34;100.00;99455.06;4983646;28;20209;-72
2022/11/21 07:10:59;;;;;;;3.63;2.07;;;;;;;5.36;100.00;99456.78;4985504;28;20237;-72
2022/11/21 07:13:24;;;;;;;4.57;2.20;;;;;;;5.36;100.00;99452.50;4986593;28;20189;-75
2022/11/21 07:15:52;;;;;;;5.27;2.50;;;;;;;5.36;100.00;99462.78;4988737;28;20229;-72
2022/11/21 07:18:19;;;;;;;4.60;2.57;;;;;;;5.36;100.00;99460.22;4988414;28;20246;-72
2022/11/21 07:20:44;;;;;;;4.13;1.87;;;;;;;5.35;100.00;99461.06;4981337;28;20192;-72
2022/11/21 07:23:10;;;;;;;5.50;2.30;;;;;;;5.31;100.00;99465.31;4979039;28;20880;-72
2022/11/21 07:25:36;;;;;;;5.73;2.20;;;;;;;5.29;100.00;99456.81;4984427;28;20209;-73
2022/11/21 07:28:01;;;;;;;5.00;2.23;;;;;;;5.29;100.00;99455.94;4979691;28;20231;-71
2022/11/21 07:30:28;;;;;;;4.23;1.90;;;;;;;5.24;100.00;99453.38;4986264;28;21145;-72
2022/11/21 07:33:01;;;;;;;2.77;2.03;;;;;;;5.22;100.00;99449.94;4988449;28;20193;-72
2022/11/21 07:35:27;;;;;;;4.97;2.07;;;;;;;5.19;100.00;99449.94;4996427;28;20188;-75
2022/11/21 07:37:53;;;;;;;6.37;2.30;;;;;;;5.17;100.00;99449.09;5014526;28;20236;-74
2022/11/21 07:40:19;;;;;;;4.57;2.00;;;;;;;5.17;100.00;99451.66;4996386;28;20675;-73
2022/11/21 07:42:45;;;;;;;3.37;2.20;;;;;;;5.13;100.00;99444.84;4991138;28;20208;-73
2022/11/21 07:45:11;;;;;;;7.20;2.43;;;;;;;5.14;100.00;99446.53;4990572;28;20185;-71
2022/11/21 07:47:36;;;;;;;4.37;2.00;;;;;;;5.14;100.00;99441.41;4986429;28;20200;-72
2022/11/21 07:50:03;;;;;;;3.87;1.80;;;;;;;5.10;100.00;99443.09;4988919;28;20193;-72
2022/11/21 07:52:29;;;;;;;4.73;2.27;;;;;;;5.13;100.00;99445.69;4986342;28;20254;-73
2022/11/21 07:54:55;;;;;;;5.83;2.27;;;;;;;5.21;100.00;99437.97;4982939;28;20183;-73
2022/11/21 07:57:20;;;;;;;6.60;2.30;;;;;;;5.36;100.00;99442.25;4987196;28;20213;-71
2022/11/21 07:59:46;;;;;;;5.00;2.00;;;;;;;5.47;100.00;99432.81;4984432;28;20194;-73
2022/11/21 08:02:29;;;;;;;6.93;2.57;;;;;;;5.62;100.00;99421.66;4989006;28;20188;-71
2022/11/21 08:04:54;;;;;;;4.17;2.10;;;;;;;5.69;100.00;99437.88;4982506;28;20980;-73
2022/11/21 08:07:21;;;;;;;4.70;1.90;;;;;;;5.70;100.00;99429.31;4985681;28;20197;-71
2022/11/21 08:09:46;;;;;;;4.13;1.90;;;;;;;5.69;100.00;99437.03;4987060;28;20218;-71
2022/11/21 08:12:12;;;;;;;3.53;1.60;;;;;;;5.64;100.00;99429.34;4987606;28;21013;-72
2022/11/21 08:14:38;;;;;;;3.40;1.70;;;;;;;5.62;100.00;99431.91;4986059;28;20864;-73
2022/11/21 08:17:05;;;;;;;4.97;1.90;;;;;;;5.61;100.00;99424.22;4984869;28;20362;-72
2022/11/21 08:19:30;;;;;;;4.80;1.70;;;;;;;5.58;100.00;99417.41;4988254;28;20202;-73
2022/11/21 08:21:55;;;;;;;3.07;1.50;;;;;;;5.56;100.00;99408.84;4986255;28;22362;-73
2022/11/21 08:24:21;;;;;;;3.90;1.93;;;;;;;5.56;100.00;99411.41;4988599;28;20189;-73
2022/11/21 08:26:46;;;;;;;2.57;1.80;;;;;;;5.59;100.00;99407.97;4989689;28;20724;-73
2022/11/21 08:29:14;;;;;;;5.03;2.00;;;;;;;5.72;100.00;99407.06;4989083;28;20616;-72
2022/11/21 08:31:40;;;;;;;3.33;1.77;;;;;;;6.00;100.00;99411.28;4986076;28;20695;-73
2022/11/21 08:34:05;;;;;;;5.17;1.70;;;;;;;6.18;100.00;99407.78;4989068;28;20194;-73
2022/11/21 08:36:30;;;;;;;2.50;1.30;;;;;;;6.30;100.00;99405.13;4987277;28;20649;-73
2022/11/21 08:38:55;;;;;;;2.63;1.40;;;;;;;6.41;100.00;99399.94;4993581;28;20203;-73
2022/11/21 08:44:05;;;;;;;13.77;9.67;;;;;;;6.71;100.00;99387.72;4985892;28;20481;-72
2022/11/21 08:46:34;;;;;;;8.73;6.70;;;;;;;6.82;100.00;99379.94;4977719;28;20712;-72
2022/11/21 08:48:59;;;;;;;7.50;5.37;;;;;;;6.91;100.00;99387.56;4981181;28;20257;-73
2022/11/21 08:51:25;;;;;;;5.33;3.87;;;;;;;7.01;100.00;99378.06;4986231;28;20200;-73
2022/11/21 08:53:50;;;;;;;4.77;3.10;;;;;;;7.11;100.00;99382.22;4990031;28;20194;-74
2022/11/21 08:56:15;;;;;;;3.37;2.30;;;;;;;7.21;100.00;99384.75;4987199;28;20315;-72
2022/11/21 08:58:41;;;;;;;4.07;2.30;;;;;;;7.23;100.00;99390.72;4991096;28;20202;-73
2022/11/21 09:01:06;;;;;;;4.17;2.17;;;;;;;7.21;100.00;99383.00;4988827;28;20193;-72
2022/11/21 09:03:32;;;;;;;4.03;2.10;;;;;;;7.23;100.00;99390.72;4990245;28;20189;-72
2022/11/21 09:05:58;;;;;;;5.30;2.07;;;;;;;7.16;100.00;99390.78;4989237;28;20219;-73
2022/11/21 09:08:24;;;;;;;2.57;1.40;;;;;;;7.18;100.00;99390.78;4989559;28;20279;-72
2022/11/21 09:10:49;;;;;;;2.07;1.27;;;;;;;7.25;100.00;99382.13;4988793;28;20188;-73
2022/11/21 09:13:15;;;;;;;2.63;1.37;;;;;;;7.37;100.00;99388.00;4985824;28;20196;-73
2022/11/21 09:18:24;;;;;;;3.20;1.57;;;;;;;7.75;100.00;99389.31;4991132;28;20306;-72
2022/11/21 09:20:49;;;;;;;2.73;1.40;;;;;;;8.05;100.00;99389.78;4987571;28;20223;-73
2022/11/21 09:23:15;;;;;;;3.70;1.77;;;;;;;8.39;100.00;99381.59;4988209;28;20204;-72
2022/11/21 09:25:42;;;;;;;3.20;1.70;;;;;;;8.67;100.00;99376.91;4983563;28;20212;-72
2022/11/21 09:28:09;;;;;;;4.63;2.10;;;;;;;8.85;100.00;99370.56;4988825;28;20502;-73
2022/11/21 09:30:35;;;;;;;3.67;1.77;;;;;;;8.81;100.00;99361.22;4987302;28;20203;-74
2022/11/21 09:33:01;;;;;;;2.47;1.57;;;;;;;8.77;100.00;99349.22;4986469;28;20661;-72
2022/11/21 09:35:27;;;;;;;2.30;1.57;;;;;;;8.76;100.00;99338.94;4984649;28;20203;-73
2022/11/21 09:37:52;;;;;;;2.40;1.50;;;;;;;8.74;100.00;99341.53;4985539;28;20212;-73
2022/11/21 09:40:18;;;;;;;2.97;1.30;;;;;;;8.72;100.00;99337.28;4986591;28;20634;-73
2022/11/21 09:43:01;;;;;;;3.87;2.20;;;;;;;8.69;100.00;99333.88;4982792;28;20574;-73
2022/11/21 09:45:36;;;;;;;4.27;3.33;;;;;;;8.72;100.00;99335.53;4996596;28;20201;-73
2022/11/21 09:48:07;;;;;;;3.53;3.17;;;;;;;8.81;100.00;99337.13;4985561;28;20316;-72
2022/11/21 09:50:40;;;;;;;4.37;2.67;;;;;;;8.90;100.00;99339.56;4982555;28;20665;-73
2022/11/21 09:53:13;;;;;;;2.87;2.37;;;;;;;8.98;100.00;99327.34;4987115;28;20201;-72
2022/11/21 09:55:41;;;;;;;2.67;1.80;;;;;;;8.98;100.00;99324.78;4982049;28;20185;-75
2022/11/21 09:58:25;;;;;;;4.40;1.80;;;;;;;8.90;100.00;99318.03;4987361;28;20311;-72
2022/11/21 10:00:52;;;;;;;2.73;1.50;;;;;;;8.81;100.00;99319.06;4989173;28;20628;-72
2022/11/21 10:03:20;;;;;;;2.80;1.60;;;;;;;8.82;100.00;99313.03;4995091;28;20217;-72
2022/11/21 10:06:11;;;;;;;4.50;2.17;;;;;;;8.82;100.00;99306.16;4980515;28;20197;-72
2022/11/21 10:09:07;;;;;;;3.10;1.63;;;;;;;8.91;100.00;99299.97;4988971;28;20715;-72
2022/11/21 10:15:23;;;;;;;3.03;1.70;;;;;;;9.35;100.00;99283.66;4983133;28;20192;-72
2022/11/21 10:17:48;;;;;;;4.30;1.67;;;;;;;9.50;100.00;99274.75;4975359;28;20236;-72
2022/11/21 10:20:19;;;;;;;3.40;1.70;;;;;;;9.54;100.00;99271.22;4985323;28;20193;-74
2022/11/21 10:22:53;;;;;;;2.97;1.70;;;;;;;9.46;100.00;99272.22;4983590;28;20189;-72
2022/11/21 10:25:24;;;;;;;3.10;1.80;;;;;;;9.34;100.00;99269.88;4982712;28;20220;-73
2022/11/21 10:27:59;;;;;;;5.00;3.07;;;;;;;9.24;100.00;99268.38;4983367;28;20579;-72
2022/11/21 10:30:24;;;;;;;4.60;2.50;;;;;;;9.14;100.00;99257.38;4989721;28;20185;-72
2022/11/21 10:33:02;;;;;;;3.23;2.30;;;;;;;9.16;100.00;99260.78;4983949;28;20279;-73
2022/11/21 10:35:39;;;;;;;3.70;2.37;;;;;;;9.19;100.00;99244.38;4979702;28;20653;-73
2022/11/21 10:38:25;;;;;;;3.10;1.80;;;;;;;9.15;100.00;99238.44;4999582;28;20217;-74
2022/11/21 10:40:54;;;;;;;3.40;1.90;;;;;;;9.18;100.00;99227.19;4983778;28;20190;-75
2022/11/21 10:46:11;;;;;;;9.77;7.23;;;;;;;9.55;100.00;99221.25;4984961;28;20728;-72
2022/11/21 10:48:37;;;;;;;14.10;12.67;;;;;;;9.66;100.00;99215.88;4983674;28;20212;-73
2022/11/21 10:51:12;;;;;;;8.53;7.73;;;;;;;9.75;100.00;99208.75;4984917;28;20288;-75
2022/11/21 10:56:25;;;;;;;7.63;6.87;;;;;;;10.02;100.00;99201.25;4982452;28;20273;-73
2022/11/21 10:58:56;;;;;;;30.70;27.83;;;;;;;10.22;100.00;99202.47;4984846;28;20569;-72
2022/11/21 11:01:33;;;;;;;36.60;33.10;;;;;;;10.37;100.00;99183.13;4985914;28;20193;-73
2022/11/21 11:04:06;;;;;;;15.43;13.93;;;;;;;10.46;100.00;99176.91;4979614;28;20277;-72
2022/11/21 11:06:32;;;;;;;7.33;6.33;;;;;;;10.53;100.00;99173.25;4985802;28;20213;-72
2022/11/21 11:08:57;;;;;;;11.60;10.60;;;;;;;10.67;100.00;99171.13;4984211;28;20301;-72
2022/11/21 11:11:25;;;;;;;12.77;11.67;;;;;;;10.75;100.00;99165.75;4984536;28;20200;-75
2022/11/21 11:14:02;;;;;;;6.87;6.27;;;;;;;10.91;100.00;99153.25;4985840;28;20195;-74
2022/11/21 11:16:30;;;;;;;4.53;4.10;;;;;;;11.19;100.00;99149.00;4985267;28;20276;-74
2022/11/21 11:18:58;;;;;;;4.77;3.50;;;;;;;11.48;100.00;99149.88;4991732;28;20706;-72
2022/11/21 11:21:27;;;;;;;3.83;2.70;;;;;;;11.67;100.00;99153.56;4978949;28;20277;-72
2022/11/21 11:23:53;;;;;;;2.70;2.00;;;;;;;11.70;99.81;99145.69;4984955;28;20185;-71
2022/11/21 11:26:29;;;;;;;3.53;1.63;;;;;;;11.61;100.00;99147.72;4986046;28;20185;-73
2022/11/21 11:29:08;;;;;;;2.40;1.70;;;;;;;11.53;100.00;99140.19;4985452;28;20775;-72
2022/11/21 11:32:03;;;;;;;2.67;1.67;;;;;;;11.41;100.00;99131.06;4987115;28;20196;-72
2022/11/21 11:34:34;;;;;;;4.87;1.83;;;;;;;11.08;98.36;99131.19;4985305;28;20281;-71
2022/11/21 11:37:20;;;;;;;3.73;1.93;;;;;;;10.78;99.10;99126.84;4985577;28;20269;-75
2022/11/21 11:40:13;;;;;;;4.83;3.00;;;;;;;10.67;99.70;99121.16;4985650;28;20591;-72
2022/11/21 11:48:46;;;;;;;2.93;1.90;;;;;;;11.15;99.07;99108.56;4978421;28;20949;-73
2022/11/21 11:51:22;;;;;;;3.07;1.87;;;;;;;11.56;98.09;99101.22;4981128;28;20202;-72
2022/11/21 11:53:52;;;;;;;3.50;1.63;;;;;;;11.72;97.47;99097.25;4977553;28;20203;-72
2022/11/21 11:56:17;;;;;;;3.63;1.40;;;;;;;11.80;96.87;99094.41;4976832;28;20209;-73
2022/11/21 11:58:43;;;;;;;2.67;1.23;;;;;;;11.85;96.59;99087.34;4983321;28;20256;-74
2022/11/21 12:01:11;;;;;;;1.90;1.40;;;;;;;11.81;96.29;99082.28;4983680;28;20296;-75